Time;durP1;ratioP1;P1;durP2;ratioP2;P2;SDS_P1;SDS_P2;PMS_P1;PMS_P2;Temp;Humidity;BMP_temperature;BMP_pressure;BME280_temperature;BME280_humidity;BME280_pressure;Samples;Min_cycle;Max_cycle;Signal;HPM_P1;HPM_P2
2022/07/26 00:00:15;;;;;;;3.80;2.70;;;;;;;;;;5027280;28;20033;-59
2022/07/26 00:02:40;;;;;;;6.70;2.80;;;;;;;;;;5029179;28;20030;-59
2022/07/26 00:05:07;;;;;;;7.05;2.80;;;;;;;;;;5030154;28;20032;-59
2022/07/26 00:07:32;;;;;;;5.75;2.80;;;;;;;;;;5027591;28;20110;-60
2022/07/26 00:09:58;;;;;;;9.18;3.15;;;;;;;;;;5028257;28;20487;-59
2022/07/26 00:12:23;;;;;;;6.30;2.70;;;;;;;;;;5027483;28;20113;-59
2022/07/26 00:14:49;;;;;;;7.38;2.63;;;;;;;;;;5029007;28;20022;-60
2022/07/26 00:17:15;;;;;;;6.68;2.90;;;;;;;;;;5028702;28;20033;-59
2022/07/26 00:19:40;;;;;;;7.75;2.80;;;;;;;;;;5028636;28;20151;-60
2022/07/26 00:24:49;;;;;;;5.72;2.80;;;;;;;;;;5028169;28;20112;-60
2022/07/26 00:27:15;;;;;;;9.35;2.65;;;;;;;;;;5029077;28;20116;-60
2022/07/26 00:29:40;;;;;;;6.57;2.53;;;;;;;;;;5027220;28;20043;-59
2022/07/26 00:32:05;;;;;;;11.27;2.60;;;;;;;;;;5027264;28;20113;-59
2022/07/26 00:34:31;;;;;;;7.88;2.45;;;;;;;;;;5027152;28;20029;-59
2022/07/26 00:36:56;;;;;;;3.55;2.45;;;;;;;;;;5028553;28;20029;-60
2022/07/26 00:39:23;;;;;;;4.28;2.08;;;;;;;;;;5029522;28;20029;-59
2022/07/26 00:41:49;;;;;;;5.13;2.40;;;;;;;;;;5027719;28;20113;-59
2022/07/26 00:44:14;;;;;;;5.03;2.20;;;;;;;;;;5029471;28;20112;-59
2022/07/26 00:46:43;;;;;;;4.28;2.33;;;;;;;;;;5028147;28;20026;-59
2022/07/26 00:49:09;;;;;;;3.40;2.20;;;;;;;;;;5028645;28;20029;-59
2022/07/26 00:51:35;;;;;;;2.65;2.25;;;;;;;;;;5025768;28;20045;-59
2022/07/26 00:54:01;;;;;;;6.68;2.53;;;;;;;;;;5028558;28;20033;-59
2022/07/26 00:56:27;;;;;;;5.25;2.25;;;;;;;;;;5028545;28;20063;-59
2022/07/26 00:58:52;;;;;;;6.35;2.10;;;;;;;;;;5029268;28;20048;-59
2022/07/26 01:01:18;;;;;;;4.68;2.22;;;;;;;;;;5029915;28;20039;-59
2022/07/26 01:03:43;;;;;;;5.47;2.17;;;;;;;;;;5028779;28;20034;-59
2022/07/26 01:06:09;;;;;;;8.27;2.28;;;;;;;;;;5027195;28;20483;-59
2022/07/26 01:08:34;;;;;;;6.28;2.00;;;;;;;;;;5035038;28;20021;-59
2022/07/26 01:11:00;;;;;;;3.28;2.40;;;;;;;;;;5026687;28;20033;-59
2022/07/26 01:13:25;;;;;;;4.40;2.50;;;;;;;;;;5028867;28;20130;-59
2022/07/26 01:15:50;;;;;;;6.28;2.60;;;;;;;;;;5027328;28;20053;-59
2022/07/26 01:18:16;;;;;;;7.45;2.50;;;;;;;;;;5025852;28;20384;-59
2022/07/26 01:20:42;;;;;;;4.53;3.38;;;;;;;;;;5025857;28;20100;-59
2022/07/26 01:23:08;;;;;;;4.80;2.10;;;;;;;;;;5027584;28;20096;-59
2022/07/26 01:25:35;;;;;;;5.07;2.60;;;;;;;;;;5028820;28;20022;-59
2022/07/26 01:28:02;;;;;;;6.90;3.03;;;;;;;;;;5026388;28;20025;-59
2022/07/26 01:30:28;;;;;;;3.75;2.15;;;;;;;;;;5027067;28;20087;-59
2022/07/26 01:32:53;;;;;;;7.10;2.45;;;;;;;;;;5026626;28;20415;-59
2022/07/26 01:35:19;;;;;;;8.60;2.60;;;;;;;;;;5027699;28;20217;-59
2022/07/26 01:37:44;;;;;;;4.75;2.22;;;;;;;;;;5027999;28;20029;-59
2022/07/26 01:40:10;;;;;;;5.95;2.50;;;;;;;;;;5028746;28;20044;-59
2022/07/26 01:42:39;;;;;;;3.58;2.25;;;;;;;;;;5025199;28;20486;-59
2022/07/26 01:45:06;;;;;;;7.88;3.15;;;;;;;;;;5028608;28;20147;-59
2022/07/26 01:47:31;;;;;;;5.95;2.55;;;;;;;;;;5027432;28;20033;-59
2022/07/26 01:49:57;;;;;;;2.85;2.03;;;;;;;;;;5028394;28;20438;-59
2022/07/26 01:52:22;;;;;;;7.03;2.35;;;;;;;;;;5025378;28;20034;-59
2022/07/26 01:54:47;;;;;;;5.20;2.17;;;;;;;;;;5033494;28;20033;-59
2022/07/26 01:57:13;;;;;;;9.43;2.22;;;;;;;;;;5026364;28;20036;-59
2022/07/26 01:59:38;;;;;;;3.80;2.13;;;;;;;;;;5027718;28;20033;-59
2022/07/26 02:02:03;;;;;;;6.65;2.40;;;;;;;;;;5027793;28;20096;-59
2022/07/26 02:07:13;;;;;;;5.10;2.38;;;;;;;;;;5030039;28;20518;-59
2022/07/26 02:09:38;;;;;;;4.30;2.50;;;;;;;;;;5029789;28;20025;-59
2022/07/26 02:12:04;;;;;;;6.72;2.80;;;;;;;;;;5028545;28;20037;-59
2022/07/26 02:14:29;;;;;;;8.32;2.90;;;;;;;;;;5030591;28;20336;-59
2022/07/26 02:16:58;;;;;;;4.40;2.28;;;;;;;;;;5030964;28;20604;-59
2022/07/26 02:19:27;;;;;;;4.90;2.20;;;;;;;;;;5036146;28;20020;-59
2022/07/26 02:21:53;;;;;;;4.13;2.55;;;;;;;;;;5030765;28;20029;-59
2022/07/26 02:24:19;;;;;;;3.92;2.03;;;;;;;;;;5031254;28;20037;-59
2022/07/26 02:26:44;;;;;;;5.03;2.60;;;;;;;;;;5030191;28;20029;-59
2022/07/26 02:29:09;;;;;;;3.67;2.08;;;;;;;;;;5031316;28;20208;-59
2022/07/26 02:31:35;;;;;;;2.80;2.30;;;;;;;;;;5029583;28;20033;-59
2022/07/26 02:34:00;;;;;;;6.70;2.20;;;;;;;;;;5031175;28;20030;-59
2022/07/26 02:36:25;;;;;;;4.03;2.30;;;;;;;;;;5029847;28;20025;-59
2022/07/26 02:38:51;;;;;;;9.38;2.40;;;;;;;;;;5031167;28;20032;-59
2022/07/26 02:41:16;;;;;;;3.88;2.40;;;;;;;;;;5030555;28;20482;-59
2022/07/26 02:43:42;;;;;;;3.05;2.10;;;;;;;;;;5030917;28;20508;-59
2022/07/26 02:46:07;;;;;;;3.38;2.20;;;;;;;;;;5030456;28;20040;-59
2022/07/26 02:48:33;;;;;;;3.47;1.77;;;;;;;;;;5029986;28;20027;-59
2022/07/26 02:50:58;;;;;;;5.32;2.65;;;;;;;;;;5029333;28;20483;-59
2022/07/26 02:53:24;;;;;;;6.55;2.03;;;;;;;;;;5028532;28;20113;-59
2022/07/26 02:55:49;;;;;;;4.18;1.90;;;;;;;;;;5030642;28;20112;-59
2022/07/26 02:58:14;;;;;;;3.80;1.83;;;;;;;;;;5030772;28;20479;-59
2022/07/26 03:00:40;;;;;;;4.15;2.00;;;;;;;;;;5029698;28;20021;-59
2022/07/26 03:03:05;;;;;;;4.55;2.05;;;;;;;;;;5028792;28;20087;-59
2022/07/26 03:05:31;;;;;;;3.08;1.92;;;;;;;;;;5036053;28;20033;-58
2022/07/26 03:07:56;;;;;;;5.20;2.03;;;;;;;;;;5029351;28;20025;-59
2022/07/26 03:10:21;;;;;;;6.50;1.73;;;;;;;;;;5028302;28;20442;-58
2022/07/26 03:12:47;;;;;;;3.33;1.85;;;;;;;;;;5026627;28;20025;-60
2022/07/26 03:15:12;;;;;;;3.40;2.00;;;;;;;;;;5029561;28;20041;-60
2022/07/26 03:17:38;;;;;;;4.22;2.00;;;;;;;;;;5029805;28;20031;-60
2022/07/26 03:20:04;;;;;;;4.10;1.95;;;;;;;;;;5031044;28;20037;-60
2022/07/26 03:22:30;;;;;;;4.32;2.15;;;;;;;;;;5023617;28;20033;-63
2022/07/26 03:24:55;;;;;;;8.57;2.10;;;;;;;;;;5028003;28;20032;-60
2022/07/26 03:27:21;;;;;;;5.65;2.15;;;;;;;;;;5031375;28;20083;-60
2022/07/26 03:29:46;;;;;;;5.60;2.50;;;;;;;;;;5029252;28;20025;-60
2022/07/26 03:32:11;;;;;;;3.42;2.47;;;;;;;;;;5028020;28;20029;-60
2022/07/26 03:34:37;;;;;;;4.70;2.05;;;;;;;;;;5029196;28;20514;-60
2022/07/26 03:37:03;;;;;;;4.45;2.72;;;;;;;;;;5028521;28;20030;-60
2022/07/26 03:39:28;;;;;;;5.75;3.80;;;;;;;;;;5028925;28;20017;-58
2022/07/26 03:41:54;;;;;;;5.63;3.28;;;;;;;;;;5035074;28;20120;-58
2022/07/26 03:44:19;;;;;;;3.83;2.13;;;;;;;;;;5029501;28;20029;-58
2022/07/26 03:46:45;;;;;;;3.80;2.45;;;;;;;;;;5028208;28;20069;-59
2022/07/26 03:49:10;;;;;;;5.10;2.25;;;;;;;;;;5029812;28;20044;-58
2022/07/26 03:51:35;;;;;;;4.70;2.63;;;;;;;;;;5028019;28;20123;-59
2022/07/26 03:54:01;;;;;;;7.00;2.70;;;;;;;;;;5028972;28;20033;-58
2022/07/26 03:56:32;;;;;;;4.13;2.50;;;;;;;;;;5029722;28;20030;-59
2022/07/26 03:59:01;;;;;;;4.13;2.08;;;;;;;;;;5029455;28;20033;-58
2022/07/26 04:01:26;;;;;;;4.97;2.40;;;;;;;;;;5026739;28;20021;-59
2022/07/26 04:03:52;;;;;;;4.40;2.92;;;;;;;;;;5030718;28;20542;-59
2022/07/26 04:06:17;;;;;;;5.30;3.38;;;;;;;;;;5028922;28;20530;-59
2022/07/26 04:08:43;;;;;;;5.82;2.45;;;;;;;;;;5028031;28;20025;-58
2022/07/26 04:11:08;;;;;;;3.80;2.22;;;;;;;;;;5027930;28;20479;-57
2022/07/26 04:13:35;;;;;;;3.20;2.08;;;;;;;;;;5028847;28;20487;-59
2022/07/26 04:16:00;;;;;;;3.38;2.00;;;;;;;;;;5026301;28;20488;-58
2022/07/26 04:18:26;;;;;;;5.93;2.45;;;;;;;;;;5028637;28;20040;-58
2022/07/26 04:20:51;;;;;;;4.60;2.22;;;;;;;;;;5027710;28;20550;-57
2022/07/26 04:23:17;;;;;;;2.83;2.08;;;;;;;;;;5028661;28;20041;-57
2022/07/26 04:25:43;;;;;;;3.85;2.25;;;;;;;;;;5028534;28;20488;-58
2022/07/26 04:28:09;;;;;;;3.13;2.13;;;;;;;;;;5027206;28;20030;-57
2022/07/26 04:30:35;;;;;;;4.85;2.42;;;;;;;;;;5021508;28;20070;-57
2022/07/26 04:33:00;;;;;;;6.85;2.22;;;;;;;;;;5028496;28;20418;-58
2022/07/26 04:35:25;;;;;;;5.10;2.10;;;;;;;;;;5028343;28;20033;-57
2022/07/26 04:37:51;;;;;;;4.03;2.25;;;;;;;;;;5028820;28;20526;-58
2022/07/26 04:40:18;;;;;;;3.33;2.08;;;;;;;;;;5029144;28;20108;-58
2022/07/26 04:42:45;;;;;;;6.43;2.95;;;;;;;;;;5027824;28;20130;-58
2022/07/26 04:45:12;;;;;;;5.43;2.33;;;;;;;;;;5027563;28;20041;-58
2022/07/26 04:47:47;;;;;;;3.72;2.30;;;;;;;;;;5027792;28;20026;-57
2022/07/26 04:50:13;;;;;;;2.35;1.90;;;;;;;;;;5028749;28;20029;-60
2022/07/26 04:52:38;;;;;;;4.10;2.40;;;;;;;;;;5026449;28;20034;-61
2022/07/26 04:55:08;;;;;;;3.47;2.22;;;;;;;;;;5031958;28;20125;-61
2022/07/26 04:57:33;;;;;;;;;;;;;;;;;;5033058;28;20040;-61
2022/07/26 04:59:59;;;;;;;4.15;2.25;;;;;;;;;;5028365;28;20003;-61
2022/07/26 05:02:24;;;;;;;4.55;2.30;;;;;;;;;;5028583;28;20364;-62
2022/07/26 05:04:50;;;;;;;5.38;2.08;;;;;;;;;;5028829;28;20032;-61
2022/07/26 05:07:15;;;;;;;4.00;2.30;;;;;;;;;;5028865;28;20071;-61
2022/07/26 05:09:41;;;;;;;4.75;2.40;;;;;;;;;;5028827;28;20544;-61
2022/07/26 05:12:07;;;;;;;3.45;2.22;;;;;;;;;;5027771;28;20029;-61
2022/07/26 05:14:32;;;;;;;7.90;4.10;;;;;;;;;;5028782;28;20079;-61
2022/07/26 05:16:58;;;;;;;4.90;1.92;;;;;;;;;;5027730;28;20036;-61
2022/07/26 05:19:23;;;;;;;3.63;2.20;;;;;;;;;;5033804;28;20100;-62
2022/07/26 05:21:50;;;;;;;3.38;1.88;;;;;;;;;;5025419;28;20063;-62
2022/07/26 05:24:16;;;;;;;4.90;2.40;;;;;;;;;;5026883;28;20030;-61
2022/07/26 05:26:41;;;;;;;6.50;2.50;;;;;;;;;;5027328;28;20052;-61
2022/07/26 05:29:06;;;;;;;6.22;2.40;;;;;;;;;;5027257;28;20033;-61
2022/07/26 05:31:32;;;;;;;3.80;2.67;;;;;;;;;;5028391;28;20340;-61
2022/07/26 05:33:57;;;;;;;5.93;2.38;;;;;;;;;;5029396;28;20475;-61
2022/07/26 05:36:22;;;;;;;3.33;2.38;;;;;;;;;;5032807;28;20045;-61
2022/07/26 05:38:48;;;;;;;4.20;2.55;;;;;;;;;;5032441;28;20072;-61
2022/07/26 05:41:13;;;;;;;4.97;2.22;;;;;;;;;;5032375;28;20037;-60
2022/07/26 05:43:39;;;;;;;3.50;2.70;;;;;;;;;;5037124;28;20033;-60
2022/07/26 05:46:04;;;;;;;3.85;2.40;;;;;;;;;;5032518;28;20029;-61
2022/07/26 05:48:29;;;;;;;9.85;4.80;;;;;;;;;;5042689;28;20586;-62
2022/07/26 05:50:55;;;;;;;6.93;2.53;;;;;;;;;;5032362;28;20400;-61
2022/07/26 05:53:21;;;;;;;3.58;2.55;;;;;;;;;;5034379;28;20112;-61
2022/07/26 05:55:46;;;;;;;3.58;2.38;;;;;;;;;;5041175;28;20107;-61
2022/07/26 05:58:12;;;;;;;3.78;2.40;;;;;;;;;;5030512;28;20069;-60
2022/07/26 06:00:37;;;;;;;3.67;2.70;;;;;;;;;;5032171;28;20037;-60
2022/07/26 06:03:20;;;;;;;3.20;2.50;;;;;;;;;;5030551;28;20026;-61
2022/07/26 06:05:56;;;;;;;3.25;2.30;;;;;;;;;;5031884;28;20108;-61
2022/07/26 06:08:23;;;;;;;5.70;2.95;;;;;;;;;;5032542;28;20033;-61
2022/07/26 06:10:49;;;;;;;3.45;2.78;;;;;;;;;;5031610;28;20031;-61
2022/07/26 06:13:15;;;;;;;5.32;2.88;;;;;;;;;;5032544;28;20439;-61
2022/07/26 06:15:41;;;;;;;4.45;2.90;;;;;;;;;;5032695;28;20087;-61
2022/07/26 06:18:07;;;;;;;4.80;2.80;;;;;;;;;;5031430;28;20025;-61
2022/07/26 06:20:33;;;;;;;3.90;2.58;;;;;;;;;;5031451;28;20031;-61
2022/07/26 06:22:59;;;;;;;4.50;3.05;;;;;;;;;;5031736;28;20483;-61
2022/07/26 06:25:25;;;;;;;5.05;3.13;;;;;;;;;;5031804;28;20049;-61
2022/07/26 06:27:51;;;;;;;6.20;3.63;;;;;;;;;;5029269;28;20026;-61
2022/07/26 06:30:16;;;;;;;7.30;3.17;;;;;;;;;;5032506;28;20115;-61
2022/07/26 06:32:43;;;;;;;4.40;2.80;;;;;;;;;;5030680;28;20030;-61
2022/07/26 06:35:09;;;;;;;6.07;3.17;;;;;;;;;;5032321;28;20048;-61
2022/07/26 06:37:36;;;;;;;6.97;3.00;;;;;;;;;;5030671;28;20684;-62
2022/07/26 06:40:03;;;;;;;3.55;2.90;;;;;;;;;;5032794;28;20445;-61
2022/07/26 06:42:28;;;;;;;9.52;3.00;;;;;;;;;;5030791;28;20036;-61
2022/07/26 06:44:53;;;;;;;6.05;3.10;;;;;;;;;;5034327;28;20017;-61
2022/07/26 06:47:19;;;;;;;5.10;3.65;;;;;;;;;;5035364;28;20045;-61
2022/07/26 06:49:44;;;;;;;4.93;3.50;;;;;;;;;;5031877;28;20034;-61
2022/07/26 06:52:10;;;;;;;5.15;3.45;;;;;;;;;;5031114;28;20037;-61
2022/07/26 06:54:35;;;;;;;4.78;3.60;;;;;;;;;;5033567;28;20049;-62
2022/07/26 06:57:00;;;;;;;4.38;3.47;;;;;;;;;;5030920;28;20101;-62
2022/07/26 06:59:26;;;;;;;4.75;3.28;;;;;;;;;;5031368;28;20021;-61
2022/07/26 07:01:51;;;;;;;6.22;4.15;;;;;;;;;;5030810;28;20400;-61
2022/07/26 07:04:16;;;;;;;10.73;5.60;;;;;;;;;;5033159;28;20562;-62
2022/07/26 07:06:42;;;;;;;5.82;4.07;;;;;;;;;;5031676;28;20025;-62
2022/07/26 07:09:07;;;;;;;4.57;3.42;;;;;;;;;;5031438;28;20121;-61
2022/07/26 07:11:33;;;;;;;6.90;3.92;;;;;;;;;;5031529;28;20025;-60
2022/07/26 07:14:01;;;;;;;6.63;4.00;;;;;;;;;;5030721;28;20097;-60
2022/07/26 07:16:27;;;;;;;6.07;4.47;;;;;;;;;;5030502;28;20112;-61
2022/07/26 07:18:52;;;;;;;7.72;4.50;;;;;;;;;;5028975;28;20364;-60
2022/07/26 07:21:18;;;;;;;5.38;4.10;;;;;;;;;;5030897;28;20075;-61
2022/07/26 07:23:43;;;;;;;6.15;5.03;;;;;;;;;;5029733;28;20048;-61
2022/07/26 07:26:09;;;;;;;11.10;4.38;;;;;;;;;;5034481;28;20021;-61
2022/07/26 07:28:37;;;;;;;5.82;4.75;;;;;;;;;;5028685;28;20021;-61
2022/07/26 07:31:03;;;;;;;8.90;4.30;;;;;;;;;;5031057;28;20037;-62
2022/07/26 07:33:29;;;;;;;5.57;4.70;;;;;;;;;;5031046;28;20029;-61
2022/07/26 07:35:54;;;;;;;6.13;4.50;;;;;;;;;;5031539;28;20025;-62
2022/07/26 07:38:20;;;;;;;15.88;4.65;;;;;;;;;;5030567;28;20116;-60
2022/07/26 07:40:45;;;;;;;5.18;4.25;;;;;;;;;;5036339;28;20069;-61
2022/07/26 07:43:11;;;;;;;6.32;4.63;;;;;;;;;;5031247;28;20037;-61
2022/07/26 07:45:36;;;;;;;8.50;4.30;;;;;;;;;;5031273;28;20252;-61
2022/07/26 07:48:02;;;;;;;5.70;4.30;;;;;;;;;;5030642;28;20033;-62
2022/07/26 07:50:27;;;;;;;8.23;4.20;;;;;;;;;;5030843;28;20032;-62
2022/07/26 07:52:53;;;;;;;4.90;4.00;;;;;;;;;;5030319;28;20117;-61
2022/07/26 07:55:18;;;;;;;5.55;4.00;;;;;;;;;;5030800;28;20068;-62
2022/07/26 07:57:44;;;;;;;8.55;4.75;;;;;;;;;;5029940;28;20021;-61
2022/07/26 08:00:11;;;;;;;7.65;4.32;;;;;;;;;;5029240;28;20025;-61
2022/07/26 08:02:37;;;;;;;8.18;4.47;;;;;;;;;;5026563;28;20100;-62
2022/07/26 08:05:03;;;;;;;4.90;4.40;;;;;;;;;;5030710;28;20168;-61
2022/07/26 08:07:29;;;;;;;10.93;4.40;;;;;;;;;;5030564;28;20056;-61
2022/07/26 08:09:56;;;;;;;8.02;4.07;;;;;;;;;;5033086;28;20471;-62
2022/07/26 08:12:21;;;;;;;7.82;4.05;;;;;;;;;;5029884;28;20032;-61
2022/07/26 08:14:47;;;;;;;9.88;3.92;;;;;;;;;;5030720;28;20037;-61
2022/07/26 08:17:12;;;;;;;6.05;4.10;;;;;;;;;;5033269;28;20083;-61
2022/07/26 08:19:38;;;;;;;9.80;4.05;;;;;;;;;;5029763;28;20489;-62
2022/07/26 08:22:03;;;;;;;4.80;3.95;;;;;;;;;;5029543;28;20613;-60
2022/07/26 08:24:29;;;;;;;7.57;3.85;;;;;;;;;;5029565;28;20091;-62
2022/07/26 08:26:54;;;;;;;6.97;4.05;;;;;;;;;;5029991;28;20072;-61
2022/07/26 08:29:19;;;;;;;8.60;4.00;;;;;;;;;;5029575;28;20029;-62
2022/07/26 08:31:45;;;;;;;4.85;3.58;;;;;;;;;;5027449;28;20553;-61
2022/07/26 08:34:10;;;;;;;5.55;3.75;;;;;;;;;;5030321;28;20031;-62
2022/07/26 08:36:36;;;;;;;6.05;3.70;;;;;;;;;;5029919;28;20101;-62
2022/07/26 08:39:02;;;;;;;7.65;3.45;;;;;;;;;;5029611;28;20112;-61
2022/07/26 08:41:27;;;;;;;6.80;3.47;;;;;;;;;;5028713;28;20210;-61
2022/07/26 08:43:53;;;;;;;8.88;4.07;;;;;;;;;;5030046;28;20383;-62
2022/07/26 08:46:22;;;;;;;5.95;3.03;;;;;;;;;;5029336;28;20021;-62
2022/07/26 08:48:48;;;;;;;8.40;3.55;;;;;;;;;;5029726;28;20025;-61
2022/07/26 08:51:15;;;;;;;8.73;3.67;;;;;;;;;;5027443;28;20094;-62
2022/07/26 08:53:41;;;;;;;6.20;3.30;;;;;;;;;;5029997;28;20494;-61
2022/07/26 08:56:06;;;;;;;9.27;3.42;;;;;;;;;;5030703;28;20071;-61
2022/07/26 08:58:34;;;;;;;10.55;3.40;;;;;;;;;;5029423;28;20040;-62
2022/07/26 09:01:08;;;;;;;5.28;3.00;;;;;;;;;;5027678;28;20032;-62
2022/07/26 09:03:36;;;;;;;4.35;3.03;;;;;;;;;;5029143;28;20025;-61
2022/07/26 09:06:17;;;;;;;6.95;3.00;;;;;;;;;;5028810;28;20491;-62
2022/07/26 09:08:44;;;;;;;5.38;2.83;;;;;;;;;;5032126;28;20040;-62
2022/07/26 09:11:30;;;;;;;6.63;2.90;;;;;;;;;;5028175;28;20036;-62
2022/07/26 09:13:58;;;;;;;7.80;3.17;;;;;;;;;;5029785;28;20079;-62
2022/07/26 09:16:24;;;;;;;5.05;3.22;;;;;;;;;;5028924;28;20033;-62
2022/07/26 09:18:50;;;;;;;7.85;3.22;;;;;;;;;;5029792;28;20444;-61
2022/07/26 09:21:26;;;;;;;5.45;2.80;;;;;;;;;;5031044;28;20029;-61
2022/07/26 09:23:51;;;;;;;6.40;4.43;;;;;;;;;;5028697;28;20033;-62
2022/07/26 09:26:19;;;;;;;4.88;2.70;;;;;;;;;;5028936;28;20379;-62
2022/07/26 09:28:44;;;;;;;4.25;2.65;;;;;;;;;;5028633;28;20029;-62
2022/07/26 09:31:10;;;;;;;4.85;2.60;;;;;;;;;;5027802;28;20399;-62
2022/07/26 09:33:50;;;;;;;4.95;2.80;;;;;;;;;;5027601;28;20021;-61
2022/07/26 09:36:17;;;;;;;6.70;2.78;;;;;;;;;;5028988;28;20026;-62
2022/07/26 09:38:44;;;;;;;5.70;2.45;;;;;;;;;;5028696;28;20025;-62
2022/07/26 09:41:20;;;;;;;6.18;2.13;;;;;;;;;;5028416;28;20036;-62
2022/07/26 09:43:46;;;;;;;3.22;2.05;;;;;;;;;;5028770;28;20183;-61
2022/07/26 09:46:12;;;;;;;4.32;1.90;;;;;;;;;;5029708;28;20120;-61
2022/07/26 09:48:38;;;;;;;3.20;1.90;;;;;;;;;;5028795;28;20033;-61
2022/07/26 09:51:05;;;;;;;3.05;2.05;;;;;;;;;;5028332;28;20029;-61
2022/07/26 09:53:42;;;;;;;6.95;2.17;;;;;;;;;;5028420;28;20060;-62
2022/07/26 09:56:08;;;;;;;6.68;1.85;;;;;;;;;;5028455;28;20029;-61
2022/07/26 09:58:35;;;;;;;13.40;3.67;;;;;;;;;;5028827;28;20393;-62
2022/07/26 10:01:01;;;;;;;3.42;2.05;;;;;;;;;;5028343;28;20432;-62
2022/07/26 10:03:29;;;;;;;3.20;1.98;;;;;;;;;;5028179;28;20115;-62
2022/07/26 10:05:56;;;;;;;3.10;1.70;;;;;;;;;;5027988;28;20043;-62
2022/07/26 10:08:21;;;;;;;5.50;2.05;;;;;;;;;;5028264;28;20025;-62
2022/07/26 10:10:54;;;;;;;6.30;1.90;;;;;;;;;;5028583;28;20480;-62
2022/07/26 10:13:20;;;;;;;2.50;1.63;;;;;;;;;;5028855;28;20445;-62
2022/07/26 10:15:48;;;;;;;4.45;1.90;;;;;;;;;;5028481;28;20025;-62
2022/07/26 10:18:35;;;;;;;4.53;1.90;;;;;;;;;;5027709;28;20446;-62
2022/07/26 10:21:19;;;;;;;6.63;1.60;;;;;;;;;;5026466;28;20123;-62
2022/07/26 10:23:46;;;;;;;5.85;1.77;;;;;;;;;;5033111;28;20021;-62
2022/07/26 10:26:30;;;;;;;4.88;1.98;;;;;;;;;;5035310;28;20021;-62
2022/07/26 10:29:15;;;;;;;3.05;1.65;;;;;;;;;;5032327;28;20043;-62
2022/07/26 10:31:41;;;;;;;3.55;2.05;;;;;;;;;;5030641;28;20487;-62
2022/07/26 10:34:07;;;;;;;4.22;1.85;;;;;;;;;;5032442;28;20075;-62
2022/07/26 10:36:38;;;;;;;5.70;1.80;;;;;;;;;;5032124;28;20103;-62
2022/07/26 10:39:11;;;;;;;4.68;1.67;;;;;;;;;;5032246;28;20044;-62
2022/07/26 10:41:43;;;;;;;2.38;1.45;;;;;;;;;;5030497;28;20057;-61
2022/07/26 10:44:22;;;;;;;3.15;1.45;;;;;;;;;;5032499;28;20228;-62
2022/07/26 10:47:08;;;;;;;3.72;1.60;;;;;;;;;;5029571;28;20495;-62
2022/07/26 10:49:56;;;;;;;2.47;1.50;;;;;;;;;;5031273;28;20037;-62
2022/07/26 10:52:29;;;;;;;7.50;1.58;;;;;;;;;;5030960;28;20032;-63
2022/07/26 10:55:03;;;;;;;2.88;1.38;;;;;;;;;;5033907;28;20064;-63
2022/07/26 10:57:33;;;;;;;4.03;1.60;;;;;;;;;;5029164;28;20513;-63
2022/07/26 10:59:59;;;;;;;5.75;2.30;;;;;;;;;;5029064;28;20466;-62
2022/07/26 11:02:31;;;;;;;4.40;1.58;;;;;;;;;;5032112;28;20036;-63
2022/07/26 11:05:14;;;;;;;1.77;1.42;;;;;;;;;;5032455;28;20032;-63
2022/07/26 11:07:49;;;;;;;3.92;1.50;;;;;;;;;;5030451;28;20051;-63
2022/07/26 11:10:14;;;;;;;5.30;1.65;;;;;;;;;;5039292;28;20033;-63
2022/07/26 11:12:39;;;;;;;3.50;1.52;;;;;;;;;;5030168;28;20137;-62
2022/07/26 11:15:18;;;;;;;3.80;1.38;;;;;;;;;;5031143;28;20072;-63
2022/07/26 11:17:44;;;;;;;2.67;1.08;;;;;;;;;;5030985;28;20077;-62
2022/07/26 11:20:10;;;;;;;4.88;1.50;;;;;;;;;;5031292;28;20121;-62
2022/07/26 11:22:35;;;;;;;7.03;1.20;;;;;;;;;;5030062;28;20112;-62
2022/07/26 11:25:03;;;;;;;2.20;1.00;;;;;;;;;;5023461;28;20131;-63
2022/07/26 11:27:29;;;;;;;3.78;1.30;;;;;;;;;;5030754;28;20044;-62
2022/07/26 11:29:54;;;;;;;5.15;1.38;;;;;;;;;;5031367;28;20071;-62
2022/07/26 11:32:22;;;;;;;2.25;1.20;;;;;;;;;;5029455;28;20030;-62
2022/07/26 11:34:58;;;;;;;3.83;1.10;;;;;;;;;;5030860;28;20126;-63
2022/07/26 11:37:24;;;;;;;3.33;1.40;;;;;;;;;;5031146;28;20037;-62
2022/07/26 11:39:49;;;;;;;3.10;1.20;;;;;;;;;;5031067;28;20074;-63
2022/07/26 11:42:18;;;;;;;2.08;1.20;;;;;;;;;;5029780;28;20108;-63
2022/07/26 11:44:45;;;;;;;3.95;1.05;;;;;;;;;;5023091;28;20025;-62
2022/07/26 11:47:18;;;;;;;2.78;1.30;;;;;;;;;;5029999;28;20026;-62
2022/07/26 11:49:45;;;;;;;3.53;1.30;;;;;;;;;;5028466;28;20164;-63
2022/07/26 11:52:11;;;;;;;2.85;1.05;;;;;;;;;;5036920;28;20025;-63
2022/07/26 11:54:44;;;;;;;1.98;1.40;;;;;;;;;;5030278;28;20059;-62
2022/07/26 11:57:11;;;;;;;2.92;1.17;;;;;;;;;;5034612;28;20029;-62
2022/07/26 11:59:38;;;;;;;2.83;1.00;;;;;;;;;;5030571;28;20060;-63
2022/07/26 12:02:07;;;;;;;3.65;1.00;;;;;;;;;;5028529;28;20048;-62
2022/07/26 12:04:37;;;;;;;4.28;1.20;;;;;;;;;;5037336;28;20039;-63
2022/07/26 12:07:09;;;;;;;2.80;1.05;;;;;;;;;;5030542;28;20034;-62
2022/07/26 12:09:34;;;;;;;3.38;1.20;;;;;;;;;;5029790;28;20017;-62
2022/07/26 12:12:05;;;;;;;2.25;1.00;;;;;;;;;;5028493;28;20521;-62
2022/07/26 12:14:34;;;;;;;1.88;1.10;;;;;;;;;;5030269;28;20029;-62
2022/07/26 12:17:13;;;;;;;5.32;1.33;;;;;;;;;;5031183;28;20029;-61
2022/07/26 12:19:38;;;;;;;1.80;1.30;;;;;;;;;;5034531;28;20087;-62
2022/07/26 12:22:17;;;;;;;5.85;1.50;;;;;;;;;;5033497;28;20028;-62
2022/07/26 12:24:54;;;;;;;2.75;0.90;;;;;;;;;;5030268;28;20025;-62
2022/07/26 12:27:27;;;;;;;2.33;1.25;;;;;;;;;;5029803;28;20511;-62
2022/07/26 12:29:55;;;;;;;3.42;1.33;;;;;;;;;;5030089;28;20049;-62
2022/07/26 12:32:20;;;;;;;4.75;1.20;;;;;;;;;;5028983;28;20498;-61
2022/07/26 12:34:56;;;;;;;6.22;1.10;;;;;;;;;;5035574;28;20025;-61
2022/07/26 12:37:22;;;;;;;3.38;1.00;;;;;;;;;;5029578;28;20570;-62
2022/07/26 12:40:07;;;;;;;3.00;0.93;;;;;;;;;;5030958;28;20098;-62
2022/07/26 12:42:39;;;;;;;2.60;0.98;;;;;;;;;;5029484;28;20017;-61
2022/07/26 12:45:07;;;;;;;1.90;1.02;;;;;;;;;;5029511;28;20375;-62
2022/07/26 12:47:35;;;;;;;1.80;0.85;;;;;;;;;;5029009;28;20033;-63
2022/07/26 12:50:02;;;;;;;3.60;1.75;;;;;;;;;;5030537;28;20030;-62
2022/07/26 12:52:28;;;;;;;1.88;1.00;;;;;;;;;;5028827;28;20119;-62
2022/07/26 12:54:54;;;;;;;1.38;1.15;;;;;;;;;;5029136;28;20098;-63
2022/07/26 12:57:20;;;;;;;1.73;0.90;;;;;;;;;;5029190;28;20495;-64
2022/07/26 12:59:47;;;;;;;2.97;1.13;;;;;;;;;;5029460;28;20026;-63
2022/07/26 13:02:12;;;;;;;2.75;1.13;;;;;;;;;;5028468;28;20048;-62
2022/07/26 13:04:38;;;;;;;2.50;1.17;;;;;;;;;;5029812;28;20399;-62
2022/07/26 13:07:04;;;;;;;3.20;1.27;;;;;;;;;;5029137;28;20476;-63
2022/07/26 13:09:32;;;;;;;1.98;1.02;;;;;;;;;;5028735;28;20041;-63
2022/07/26 13:11:58;;;;;;;1.90;0.90;;;;;;;;;;5028424;28;20021;-62
2022/07/26 13:14:23;;;;;;;2.72;0.90;;;;;;;;;;5029485;28;20037;-63
2022/07/26 13:16:49;;;;;;;2.72;0.90;;;;;;;;;;5027620;28;20046;-62
2022/07/26 13:19:15;;;;;;;1.60;1.10;;;;;;;;;;5028357;28;20029;-63
2022/07/26 13:21:40;;;;;;;1.58;0.88;;;;;;;;;;5028940;28;20108;-63
2022/07/26 13:24:06;;;;;;;2.38;0.90;;;;;;;;;;5027163;28;20036;-62
2022/07/26 13:26:31;;;;;;;2.97;1.00;;;;;;;;;;5028979;28;20029;-63
2022/07/26 13:28:57;;;;;;;2.15;1.08;;;;;;;;;;5029060;28;20514;-63
2022/07/26 13:31:23;;;;;;;2.88;1.27;;;;;;;;;;5028172;28;20026;-63
2022/07/26 13:33:48;;;;;;;2.85;0.90;;;;;;;;;;5029812;28;20479;-63
2022/07/26 13:36:13;;;;;;;1.20;0.75;;;;;;;;;;5028911;28;20059;-63
2022/07/26 13:38:39;;;;;;;4.32;1.02;;;;;;;;;;5028505;28;20120;-63
2022/07/26 13:41:05;;;;;;;3.17;0.80;;;;;;;;;;5028644;28;20068;-63
2022/07/26 13:43:30;;;;;;;4.75;1.23;;;;;;;;;;5029220;28;20032;-63
2022/07/26 13:45:58;;;;;;;3.45;1.30;;;;;;;;;;5029417;28;20079;-63
2022/07/26 13:48:24;;;;;;;1.73;0.93;;;;;;;;;;5026934;28;20037;-62
2022/07/26 13:50:49;;;;;;;2.20;0.70;;;;;;;;;;5029539;28;20026;-63
2022/07/26 13:53:15;;;;;;;1.20;1.00;;;;;;;;;;5029256;28;20475;-63
2022/07/26 13:55:41;;;;;;;1.85;0.90;;;;;;;;;;5036155;28;20040;-63
2022/07/26 13:58:06;;;;;;;4.80;1.00;;;;;;;;;;5031460;28;20107;-63
2022/07/26 14:00:32;;;;;;;1.63;0.82;;;;;;;;;;5032965;28;20059;-63
2022/07/26 14:02:58;;;;;;;1.30;0.95;;;;;;;;;;5031381;28;20037;-63
2022/07/26 14:05:24;;;;;;;2.40;0.93;;;;;;;;;;5033709;28;20537;-63
2022/07/26 14:07:50;;;;;;;1.30;0.90;;;;;;;;;;5032065;28;20030;-63
2022/07/26 14:10:15;;;;;;;2.00;1.00;;;;;;;;;;5033011;28;20047;-62
2022/07/26 14:12:41;;;;;;;1.52;0.90;;;;;;;;;;5032658;28;20487;-62
2022/07/26 14:15:09;;;;;;;4.72;1.10;;;;;;;;;;5032861;28;20026;-63
2022/07/26 14:17:35;;;;;;;1.58;0.93;;;;;;;;;;5032574;28;20032;-62
2022/07/26 14:20:02;;;;;;;1.38;0.80;;;;;;;;;;5032409;28;20029;-63
2022/07/26 14:22:28;;;;;;;1.45;0.80;;;;;;;;;;5030718;28;20048;-63
2022/07/26 14:24:54;;;;;;;1.38;0.70;;;;;;;;;;5026964;28;20054;-63
2022/07/26 14:27:19;;;;;;;1.80;0.95;;;;;;;;;;5032569;28;20033;-63
2022/07/26 14:29:45;;;;;;;1.70;0.70;;;;;;;;;;5032792;28;20030;-62
2022/07/26 14:32:11;;;;;;;2.00;0.90;;;;;;;;;;5031083;28;20108;-63
2022/07/26 14:34:37;;;;;;;1.80;0.95;;;;;;;;;;5031523;28;20037;-63
2022/07/26 14:37:02;;;;;;;1.88;0.90;;;;;;;;;;5037045;28;20029;-62
2022/07/26 14:39:28;;;;;;;1.88;0.90;;;;;;;;;;5028799;28;21291;-62
2022/07/26 14:41:53;;;;;;;3.25;1.27;;;;;;;;;;5030400;28;20112;-63
2022/07/26 14:44:19;;;;;;;1.90;0.80;;;;;;;;;;5032303;28;20075;-63
2022/07/26 14:46:45;;;;;;;3.92;0.98;;;;;;;;;;5030846;28;20013;-62